Time;durP1;ratioP1;P1;durP2;ratioP2;P2;SDS_P1;SDS_P2;PMS_P1;PMS_P2;Temp;Humidity;BMP_temperature;BMP_pressure;BME280_temperature;BME280_humidity;BME280_pressure;Samples;Min_cycle;Max_cycle;Signal;HPM_P1;HPM_P2
2022/02/16 00:01:08;;;;;;;;;;;11.80;99.90;;;;;;5074837;28;19912;-78
2022/02/16 00:03:34;;;;;;;;;;;11.80;99.90;;;;;;5074667;28;19908;-80
2022/02/16 00:05:59;;;;;;;;;;;11.80;99.90;;;;;;5074532;28;20293;-81
2022/02/16 00:08:25;;;;;;;;;;;11.80;99.90;;;;;;5056617;28;19908;-82
2022/02/16 00:10:51;;;;;;;;;;;11.80;99.90;;;;;;5074501;28;19908;-83
2022/02/16 00:13:17;;;;;;;;;;;11.80;99.90;;;;;;5074637;28;19908;-83
2022/02/16 00:15:43;;;;;;;;;;;11.80;99.90;;;;;;5056295;28;19915;-81
2022/02/16 00:18:08;;;;;;;;;;;11.80;99.90;;;;;;5074294;28;19920;-82
2022/02/16 00:20:35;;;;;;;;;;;11.80;99.90;;;;;;5074289;28;20023;-83
2022/02/16 00:23:00;;;;;;;;;;;11.80;99.90;;;;;;5074396;28;19909;-82
2022/02/16 00:25:26;;;;;;;;;;;11.80;99.90;;;;;;5074221;28;19923;-83
2022/02/16 00:27:52;;;;;;;;;;;11.80;99.90;;;;;;5074207;28;19909;-82
2022/02/16 00:30:18;;;;;;;;;;;11.90;99.90;;;;;;5074164;28;19908;-83
2022/02/16 00:32:44;;;;;;;;;;;11.90;99.90;;;;;;5056162;28;20384;-81
2022/02/16 00:35:09;;;;;;;;;;;11.90;99.90;;;;;;5074311;28;19908;-81
2022/02/16 00:37:35;;;;;;;;;;;12.00;99.90;;;;;;5074235;28;19909;-80
2022/02/16 00:40:01;;;;;;;;;;;12.00;99.90;;;;;;5073961;28;20001;-82
2022/02/16 00:42:26;;;;;;;;;;;12.10;99.90;;;;;;5073946;28;19999;-80
2022/02/16 00:44:52;;;;;;;;;;;12.00;99.90;;;;;;5074205;28;19913;-80
2022/02/16 00:47:17;;;;;;;;;;;12.00;99.90;;;;;;5074189;28;19915;-83
2022/02/16 00:49:43;;;;;;;;;;;12.00;99.90;;;;;;5073488;28;20288;-80
2022/02/16 00:52:08;;;;;;;;;;;12.00;99.90;;;;;;5055780;28;19912;-80
2022/02/16 00:54:36;;;;;;;;;;;12.10;99.90;;;;;;5073830;28;20386;-80
2022/02/16 00:57:02;;;;;;;;;;;12.00;99.90;;;;;;5073780;28;19909;-81
2022/02/16 00:59:28;;;;;;;;;;;12.10;99.90;;;;;;5073783;28;19913;-80
2022/02/16 01:01:53;;;;;;;;;;;12.10;99.90;;;;;;5073757;28;19987;-80
2022/02/16 01:04:19;;;;;;;;;;;12.10;99.90;;;;;;5073633;28;19931;-79
2022/02/16 01:06:45;;;;;;;;;;;12.10;99.90;;;;;;5074024;28;19987;-78
2022/02/16 01:09:10;;;;;;;;;;;12.10;99.90;;;;;;5073667;28;19909;-80
2022/02/16 01:11:36;;;;;;;;;;;12.10;99.90;;;;;;5073701;28;19917;-80
2022/02/16 01:14:02;;;;;;;;;;;12.10;99.90;;;;;;5073654;28;19908;-82
2022/02/16 01:16:28;;;;;;;;;;;12.20;99.90;;;;;;5073610;28;20392;-80
2022/02/16 01:18:53;;;;;;;;;;;12.20;99.90;;;;;;5073710;28;19909;-80
2022/02/16 01:21:19;;;;;;;;;;;12.20;99.90;;;;;;5073666;28;20409;-80
2022/02/16 01:23:44;;;;;;;;;;;12.20;99.90;;;;;;5073550;28;19916;-80
2022/02/16 01:26:12;;;;;;;;;;;12.20;99.90;;;;;;5073445;28;20304;-79
2022/02/16 01:28:37;;;;;;;;;;;12.30;99.90;;;;;;5055527;28;19909;-80
2022/02/16 01:31:03;;;;;;;;;;;12.30;99.90;;;;;;5073695;28;19909;-80
2022/02/16 01:33:29;;;;;;;;;;;12.30;99.90;;;;;;5055473;28;19916;-80
2022/02/16 01:35:54;;;;;;;;;;;12.30;99.90;;;;;;5073480;28;19931;-79
2022/02/16 01:38:20;;;;;;;;;;;12.40;99.90;;;;;;5073417;28;19966;-80
2022/02/16 01:40:46;;;;;;;;;;;12.40;99.90;;;;;;5073417;28;20352;-79
2022/02/16 01:43:11;;;;;;;;;;;12.40;99.90;;;;;;5073381;28;19958;-81
2022/02/16 01:45:37;;;;;;;;;;;12.40;99.90;;;;;;5073239;28;20387;-81
2022/02/16 01:48:03;;;;;;;;;;;12.50;99.90;;;;;;5073239;28;19909;-79
2022/02/16 01:50:29;;;;;;;;;;;12.40;99.90;;;;;;5055238;28;19954;-81
2022/02/16 01:52:55;;;;;;;;;;;12.50;99.90;;;;;;5073503;28;19995;-80
2022/02/16 01:55:21;;;;;;;;;;;12.50;99.90;;;;;;5073292;28;19961;-80
2022/02/16 01:57:47;;;;;;;;;;;12.50;99.90;;;;;;5073209;28;19962;-80
2022/02/16 02:00:13;;;;;;;;;;;12.60;99.90;;;;;;5055128;28;19909;-80
2022/02/16 02:02:39;;;;;;;;;;;12.50;99.90;;;;;;5056558;28;19957;-79
2022/02/16 02:05:05;;;;;;;;;;;12.50;99.90;;;;;;5076836;28;19999;-79
2022/02/16 02:07:30;;;;;;;;;;;12.50;99.90;;;;;;5076917;28;20276;-79
2022/02/16 02:09:56;;;;;;;;;;;12.50;99.90;;;;;;5076800;28;19975;-81
2022/02/16 02:12:21;;;;;;;;;;;12.50;99.90;;;;;;5076973;28;20438;-80
2022/02/16 02:14:51;;;;;;;;;;;12.50;99.90;;;;;;5077084;28;19940;-79
2022/02/16 02:17:16;;;;;;;;;;;12.60;99.90;;;;;;5076692;28;19999;-79
2022/02/16 02:19:42;;;;;;;;;;;12.60;99.90;;;;;;5076760;28;19912;-80
2022/02/16 02:22:07;;;;;;;;;;;12.60;99.90;;;;;;5076598;28;19970;-80
2022/02/16 02:24:33;;;;;;;;;;;12.60;99.90;;;;;;5076532;28;19958;-79
2022/02/16 02:26:59;;;;;;;;;;;12.60;99.90;;;;;;5076621;28;19908;-80
2022/02/16 02:29:24;;;;;;;;;;;12.60;99.90;;;;;;5076521;28;20004;-80
2022/02/16 02:31:50;;;;;;;;;;;12.60;99.90;;;;;;5076506;28;20361;-79
2022/02/16 02:34:16;;;;;;;;;;;12.60;99.90;;;;;;5076382;28;19943;-79
2022/02/16 02:36:41;;;;;;;;;;;12.60;99.90;;;;;;5076546;28;19916;-80
2022/02/16 02:39:07;;;;;;;;;;;12.60;99.90;;;;;;5058411;28;19909;-79
2022/02/16 02:41:32;;;;;;;;;;;12.60;99.90;;;;;;5076418;28;19908;-80
2022/02/16 02:43:59;;;;;;;;;;;12.60;99.90;;;;;;5076285;28;19943;-79
2022/02/16 02:46:24;;;;;;;;;;;12.60;99.90;;;;;;5076156;28;19919;-78
2022/02/16 02:48:50;;;;;;;;;;;12.60;99.90;;;;;;5076161;28;19909;-80
2022/02/16 02:51:16;;;;;;;;;;;12.60;99.90;;;;;;5076206;28;19933;-79
2022/02/16 02:53:42;;;;;;;;;;;12.60;99.90;;;;;;5076034;28;19908;-79
2022/02/16 02:56:08;;;;;;;;;;;12.60;99.90;;;;;;5076053;28;20375;-81
2022/02/16 02:58:34;;;;;;;;;;;12.60;99.90;;;;;;5076294;28;19909;-78
2022/02/16 03:00:59;;;;;;;;;;;12.60;99.90;;;;;;5057963;28;20379;-79
2022/02/16 03:03:25;;;;;;;;;;;12.60;99.90;;;;;;5075931;28;19909;-80
2022/02/16 03:05:51;;;;;;;;;;;12.60;99.90;;;;;;5075862;28;20422;-80
2022/02/16 03:08:17;;;;;;;;;;;12.60;99.90;;;;;;5075867;28;19916;-79
2022/02/16 03:10:43;;;;;;;;;;;12.50;99.90;;;;;;5075990;28;20420;-79
2022/02/16 03:13:19;;;;;;;;;;;12.50;99.90;;;;;;5075285;28;20277;-80
2022/02/16 03:15:48;;;;;;;;;;;12.50;99.90;;;;;;5075548;28;19962;-79
2022/02/16 03:18:14;;;;;;;;;;;12.50;99.90;;;;;;5075893;28;19908;-78
2022/02/16 03:20:39;;;;;;;;;;;12.50;99.90;;;;;;5057610;28;19908;-79
2022/02/16 03:23:05;;;;;;;;;;;12.50;99.90;;;;;;5075622;28;19908;-79
2022/02/16 03:25:31;;;;;;;;;;;12.50;99.90;;;;;;5075377;28;19919;-79
2022/02/16 03:27:56;;;;;;;;;;;12.50;99.90;;;;;;5057418;28;19920;-78
2022/02/16 03:30:22;;;;;;;;;;;12.50;99.90;;;;;;5075384;28;19916;-80
2022/02/16 03:32:48;;;;;;;;;;;12.50;99.90;;;;;;5075336;28;20003;-80
2022/02/16 03:35:14;;;;;;;;;;;12.40;99.90;;;;;;5057351;28;19995;-79
2022/02/16 03:37:39;;;;;;;;;;;12.40;99.90;;;;;;5075220;28;19909;-78
2022/02/16 03:40:05;;;;;;;;;;;12.40;99.90;;;;;;5057242;28;19979;-78
2022/02/16 03:42:31;;;;;;;;;;;12.40;99.90;;;;;;5075161;28;19916;-80
2022/02/16 03:44:56;;;;;;;;;;;12.40;99.90;;;;;;5075219;28;20257;-79
2022/02/16 03:47:22;;;;;;;;;;;12.30;99.90;;;;;;5075046;28;19932;-79
2022/02/16 03:49:48;;;;;;;;;;;12.30;99.90;;;;;;5074958;28;20303;-80
2022/02/16 03:52:13;;;;;;;;;;;12.30;99.90;;;;;;5074926;28;19971;-79
2022/02/16 03:54:39;;;;;;;;;;;12.30;99.90;;;;;;5056977;28;19987;-80
2022/02/16 03:57:04;;;;;;;;;;;12.30;99.90;;;;;;5075057;28;19962;-80
2022/02/16 03:59:30;;;;;;;;;;;12.30;99.90;;;;;;5074865;28;20055;-79
2022/02/16 04:01:55;;;;;;;;;;;12.30;99.90;;;;;;5074728;28;20369;-79
2022/02/16 04:04:21;;;;;;;;;;;12.30;99.90;;;;;;5074691;28;20303;-80
2022/02/16 04:06:47;;;;;;;;;;;12.30;99.90;;;;;;5074631;28;19912;-79
2022/02/16 04:09:13;;;;;;;;;;;12.30;99.90;;;;;;5074598;28;19908;-80
2022/02/16 04:11:39;;;;;;;;;;;12.30;99.90;;;;;;5074815;28;19909;-81
2022/02/16 04:14:05;;;;;;;;;;;12.30;99.90;;;;;;5074490;28;19908;-81
2022/02/16 04:16:30;;;;;;;;;;;12.20;99.90;;;;;;5074344;28;19927;-80
2022/02/16 04:18:56;;;;;;;;;;;12.30;99.90;;;;;;5074622;28;20361;-79
2022/02/16 04:21:21;;;;;;;;;;;12.30;99.90;;;;;;5074322;28;19915;-79
2022/02/16 04:23:47;;;;;;;;;;;12.20;99.90;;;;;;5074386;28;19913;-79
2022/02/16 04:26:13;;;;;;;;;;;12.20;99.90;;;;;;5073401;28;19948;-81
2022/02/16 04:28:39;;;;;;;;;;;12.20;99.90;;;;;;5074180;28;19908;-79
2022/02/16 04:31:04;;;;;;;;;;;12.30;99.90;;;;;;5074197;28;20327;-79
2022/02/16 04:33:30;;;;;;;;;;;12.30;99.90;;;;;;5074124;28;19909;-79
2022/02/16 04:35:55;;;;;;;;;;;12.20;99.90;;;;;;5074115;28;19962;-78
2022/02/16 04:38:21;;;;;;;;;;;12.30;99.90;;;;;;5074033;28;19908;-80
2022/02/16 04:40:47;;;;;;;;;;;12.30;99.90;;;;;;5074321;28;19919;-79
2022/02/16 04:43:12;;;;;;;;;;;12.30;99.90;;;;;;5056094;28;20254;-80
2022/02/16 04:45:38;;;;;;;;;;;12.20;99.90;;;;;;5073978;28;19912;-80
2022/02/16 04:48:04;;;;;;;;;;;12.30;99.90;;;;;;5074473;28;19915;-80
2022/02/16 04:50:30;;;;;;;;;;;12.20;99.90;;;;;;5074048;28;19915;-79
2022/02/16 04:52:55;;;;;;;;;;;12.30;99.90;;;;;;5073940;28;19988;-80
2022/02/16 04:55:24;;;;;;;;;;;12.30;99.90;;;;;;5073834;28;20357;-80
2022/02/16 04:57:50;;;;;;;;;;;12.30;99.90;;;;;;5055775;28;20284;-80
2022/02/16 05:00:16;;;;;;;;;;;12.30;99.90;;;;;;5074059;28;19908;-80
2022/02/16 05:02:41;;;;;;;;;;;12.30;99.90;;;;;;5055800;28;19908;-79
2022/02/16 05:05:07;;;;;;;;;;;12.30;99.90;;;;;;5073798;28;19916;-80
2022/02/16 05:07:33;;;;;;;;;;;12.40;99.90;;;;;;5073247;28;19974;-80
2022/02/16 05:09:59;;;;;;;;;;;12.30;99.90;;;;;;5073687;28;20368;-79
2022/02/16 05:12:25;;;;;;;;;;;12.30;99.90;;;;;;5055656;28;19915;-80
2022/02/16 05:14:50;;;;;;;;;;;12.40;99.90;;;;;;5073427;28;19912;-81
2022/02/16 05:17:16;;;;;;;;;;;12.30;99.90;;;;;;5073537;28;20331;-79
2022/02/16 05:19:42;;;;;;;;;;;12.40;99.90;;;;;;5073711;28;19909;-79
2022/02/16 05:22:08;;;;;;;;;;;12.40;99.90;;;;;;5073514;28;19916;-81
2022/02/16 05:24:33;;;;;;;;;;;12.30;99.90;;;;;;5073456;28;19908;-80
2022/02/16 05:26:59;;;;;;;;;;;12.30;99.90;;;;;;5073462;28;19908;-79
2022/02/16 05:29:24;;;;;;;;;;;12.30;99.90;;;;;;5073442;28;19909;-79
2022/02/16 05:31:50;;;;;;;;;;;12.30;99.90;;;;;;5073445;28;19908;-80
2022/02/16 05:34:16;;;;;;;;;;;12.20;99.90;;;;;;5073890;28;19923;-80
2022/02/16 05:36:42;;;;;;;;;;;12.20;99.90;;;;;;5056902;28;19909;-80
2022/02/16 05:39:08;;;;;;;;;;;12.20;99.90;;;;;;5077521;28;19955;-79
2022/02/16 05:41:34;;;;;;;;;;;12.20;99.90;;;;;;5077467;28;19936;-80
2022/02/16 05:43:59;;;;;;;;;;;12.20;99.90;;;;;;5077694;28;20387;-80
2022/02/16 05:46:25;;;;;;;;;;;12.20;99.90;;;;;;5077592;28;19912;-80
2022/02/16 05:48:50;;;;;;;;;;;12.30;99.90;;;;;;5059397;28;19908;-79
2022/02/16 05:51:16;;;;;;;;;;;12.30;99.90;;;;;;5077240;28;20343;-80
2022/02/16 05:53:42;;;;;;;;;;;12.40;99.90;;;;;;5077270;28;19915;-80
2022/02/16 05:56:08;;;;;;;;;;;12.40;99.90;;;;;;5059166;28;20289;-79
2022/02/16 05:58:34;;;;;;;;;;;12.40;99.90;;;;;;5077246;28;19912;-80
2022/02/16 06:01:00;;;;;;;;;;;12.40;99.90;;;;;;5076995;28;19995;-80
2022/02/16 06:03:25;;;;;;;;;;;12.40;99.90;;;;;;5077030;28;19909;-79
2022/02/16 06:05:51;;;;;;;;;;;12.40;99.90;;;;;;5076882;28;20254;-80
2022/02/16 06:08:17;;;;;;;;;;;12.40;99.90;;;;;;5058934;28;19920;-80
2022/02/16 06:10:42;;;;;;;;;;;12.40;99.90;;;;;;5077008;28;19909;-80
2022/02/16 06:13:08;;;;;;;;;;;12.50;99.90;;;;;;5058870;28;19995;-80
2022/02/16 06:15:33;;;;;;;;;;;12.40;99.90;;;;;;5058745;28;19908;-78
2022/02/16 06:17:59;;;;;;;;;;;12.50;99.90;;;;;;5076288;28;19974;-80
2022/02/16 06:20:25;;;;;;;;;;;12.50;99.90;;;;;;5058645;28;20365;-79
2022/02/16 06:22:52;;;;;;;;;;;12.50;99.90;;;;;;5076755;28;19908;-80
2022/02/16 06:25:18;;;;;;;;;;;12.60;99.90;;;;;;5076739;28;19938;-80
2022/02/16 06:27:44;;;;;;;;;;;12.50;99.90;;;;;;5076571;28;19912;-79
2022/02/16 06:30:10;;;;;;;;;;;12.50;99.90;;;;;;5076500;28;19920;-80
2022/02/16 06:32:35;;;;;;;;;;;12.50;99.90;;;;;;5076654;28;19915;-80
2022/02/16 06:35:01;;;;;;;;;;;12.50;99.90;;;;;;5076456;28;20352;-79
2022/02/16 06:37:27;;;;;;;;;;;12.60;99.90;;;;;;5076782;28;19920;-80
2022/02/16 06:39:53;;;;;;;;;;;12.50;99.90;;;;;;5076922;28;19908;-80
2022/02/16 06:42:18;;;;;;;;;;;12.50;99.90;;;;;;5058407;28;19909;-80
2022/02/16 06:44:44;;;;;;;;;;;12.50;99.90;;;;;;5076195;28;20003;-79
2022/02/16 06:47:09;;;;;;;;;;;12.50;99.90;;;;;;5058263;28;19979;-79
2022/02/16 06:49:35;;;;;;;;;;;12.50;99.90;;;;;;5075478;28;19915;-79
2022/02/16 06:52:01;;;;;;;;;;;12.50;99.90;;;;;;5076161;28;19985;-79
2022/02/16 06:54:26;;;;;;;;;;;12.50;99.90;;;;;;5076089;28;19912;-80
2022/02/16 06:56:52;;;;;;;;;;;12.50;99.90;;;;;;5076027;28;20389;-78
2022/02/16 06:59:18;;;;;;;;;;;12.50;99.90;;;;;;5076002;28;19916;-80
2022/02/16 07:01:44;;;;;;;;;;;12.50;99.90;;;;;;5075977;28;20265;-81
2022/02/16 07:04:09;;;;;;;;;;;12.50;99.90;;;;;;5075874;28;19930;-81
2022/02/16 07:06:35;;;;;;;;;;;12.50;99.90;;;;;;5075837;28;19913;-80
2022/02/16 07:09:00;;;;;;;;;;;12.50;99.90;;;;;;5075958;28;19909;-79
2022/02/16 07:11:26;;;;;;;;;;;12.50;99.90;;;;;;5075961;28;19928;-80
2022/02/16 07:13:52;;;;;;;;;;;12.60;99.90;;;;;;5075731;28;19916;-79
2022/02/16 07:16:17;;;;;;;;;;;12.60;99.90;;;;;;5075911;28;19921;-80
2022/02/16 07:18:43;;;;;;;;;;;12.50;99.90;;;;;;5075615;28;20284;-80
2022/02/16 07:21:09;;;;;;;;;;;12.60;99.90;;;;;;5075586;28;19919;-80
2022/02/16 07:23:35;;;;;;;;;;;12.60;99.90;;;;;;5075776;28;19908;-80
2022/02/16 07:26:01;;;;;;;;;;;12.60;99.90;;;;;;5057470;28;19997;-81
2022/02/16 07:28:27;;;;;;;;;;;12.60;99.90;;;;;;5075460;28;19955;-79
2022/02/16 07:30:52;;;;;;;;;;;12.50;99.90;;;;;;5057470;28;19909;-80
2022/02/16 07:33:18;;;;;;;;;;;12.50;99.90;;;;;;5075362;28;20339;-80
2022/02/16 07:35:43;;;;;;;;;;;12.50;99.90;;;;;;5057281;28;19912;-81
2022/02/16 07:38:09;;;;;;;;;;;12.50;99.90;;;;;;5075646;28;19919;-79
2022/02/16 07:40:34;;;;;;;;;;;12.50;99.90;;;;;;5057215;28;19908;-79
2022/02/16 07:43:00;;;;;;;;;;;12.50;99.90;;;;;;5075304;28;19915;-80
2022/02/16 07:45:26;;;;;;;;;;;12.60;99.90;;;;;;5075232;28;19927;-80
2022/02/16 07:47:51;;;;;;;;;;;12.60;99.90;;;;;;5075123;28;19909;-79
2022/02/16 07:50:17;;;;;;;;;;;12.60;99.90;;;;;;5057150;28;19991;-79
2022/02/16 07:52:43;;;;;;;;;;;12.60;99.90;;;;;;5075039;28;20266;-79
2022/02/16 07:55:09;;;;;;;;;;;12.60;99.90;;;;;;5075056;28;19959;-79
2022/02/16 07:57:34;;;;;;;;;;;12.60;99.90;;;;;;5075159;28;19909;-79
2022/02/16 08:00:00;;;;;;;;;;;12.70;99.90;;;;;;5074826;28;19908;-79
2022/02/16 08:02:26;;;;;;;;;;;12.70;99.90;;;;;;5074811;28;19909;-79
2022/02/16 08:04:51;;;;;;;;;;;12.70;99.90;;;;;;5056677;28;19919;-79
2022/02/16 08:07:17;;;;;;;;;;;12.70;99.90;;;;;;5074725;28;20357;-79
2022/02/16 08:09:42;;;;;;;;;;;12.70;99.90;;;;;;5074743;28;19915;-79
2022/02/16 08:12:08;;;;;;;;;;;12.80;99.90;;;;;;5074521;28;19915;-79
2022/02/16 08:14:34;;;;;;;;;;;12.80;99.90;;;;;;5056638;28;20265;-80
2022/02/16 08:17:00;;;;;;;;;;;12.80;99.90;;;;;;5074506;28;20007;-80
2022/02/16 08:19:26;;;;;;;;;;;12.80;99.90;;;;;;5074742;28;19909;-80
2022/02/16 08:21:55;;;;;;;;;;;12.90;99.90;;;;;;5074385;28;19908;-79
2022/02/16 08:24:21;;;;;;;;;;;12.80;99.90;;;;;;5074323;28;19915;-79
2022/02/16 08:26:47;;;;;;;;;;;12.90;99.90;;;;;;5056313;28;20003;-81
2022/02/16 08:29:16;;;;;;;;;;;12.90;99.90;;;;;;5074593;28;19947;-79
2022/02/16 08:31:46;;;;;;;;;;;13.00;99.90;;;;;;5074216;28;19916;-79
2022/02/16 08:34:12;;;;;;;;;;;13.10;99.90;;;;;;5074238;28;19913;-81
2022/02/16 08:36:38;;;;;;;;;;;13.10;99.90;;;;;;5074152;28;20003;-80
2022/02/16 08:39:07;;;;;;;;;;;13.30;99.90;;;;;;5056187;28;19944;-81
2022/02/16 08:41:32;;;;;;;;;;;13.40;99.90;;;;;;5074066;28;19944;-79
2022/02/16 08:43:58;;;;;;;;;;;13.40;99.90;;;;;;5074026;28;19971;-79
2022/02/16 08:46:24;;;;;;;;;;;13.50;99.90;;;;;;5056040;28;19923;-80
2022/02/16 08:48:50;;;;;;;;;;;13.50;99.90;;;;;;5073949;28;20450;-79
2022/02/16 08:51:15;;;;;;;;;;;13.60;99.90;;;;;;5074197;28;20478;-80
2022/02/16 08:53:41;;;;;;;;;;;13.60;99.90;;;;;;5073777;28;20376;-80
2022/02/16 08:56:06;;;;;;;;;;;13.50;99.90;;;;;;5055874;28;20275;-79
2022/02/16 08:58:32;;;;;;;;;;;13.70;99.90;;;;;;5073843;28;20476;-80
2022/02/16 09:00:58;;;;;;;;;;;13.70;99.90;;;;;;5073794;28;20221;-78
2022/02/16 09:03:24;;;;;;;;;;;13.90;99.90;;;;;;5073726;28;19915;-80
2022/02/16 09:05:50;;;;;;;;;;;13.70;99.90;;;;;;5073663;28;19920;-80
2022/02/16 09:08:17;;;;;;;;;;;13.80;99.90;;;;;;5073811;28;19908;-79
2022/02/16 09:10:43;;;;;;;;;;;13.90;99.90;;;;;;5073434;28;19994;-79
2022/02/16 09:13:09;;;;;;;;;;;14.00;99.90;;;;;;5073815;28;19955;-79
2022/02/16 09:15:34;;;;;;;;;;;13.90;99.90;;;;;;5055654;28;20435;-80
2022/02/16 09:18:00;;;;;;;;;;;14.00;99.90;;;;;;5073178;28;19920;-80
2022/02/16 09:20:26;;;;;;;;;;;13.90;99.90;;;;;;5073755;28;19908;-80
2022/02/16 09:22:52;;;;;;;;;;;13.90;99.90;;;;;;5073552;28;19908;-79
2022/02/16 09:25:18;;;;;;;;;;;13.80;99.90;;;;;;5073485;28;19923;-79
2022/02/16 09:27:43;;;;;;;;;;;13.70;99.90;;;;;;5073625;28;19909;-80
2022/02/16 09:30:10;;;;;;;;;;;13.80;99.90;;;;;;5055465;28;19912;-79
2022/02/16 09:32:35;;;;;;;;;;;13.80;99.90;;;;;;5073491;28;19995;-79
2022/02/16 09:35:01;;;;;;;;;;;13.90;99.90;;;;;;5073445;28;20357;-80
2022/02/16 09:37:27;;;;;;;;;;;14.00;99.90;;;;;;5073881;28;19919;-78
2022/02/16 09:39:52;;;;;;;;;;;14.00;99.90;;;;;;5055419;28;19909;-78
2022/02/16 09:42:18;;;;;;;;;;;14.00;99.90;;;;;;5073530;28;20304;-80
2022/02/16 09:44:46;;;;;;;;;;;14.00;99.90;;;;;;5073410;28;19954;-79
2022/02/16 09:47:13;;;;;;;;;;;14.00;99.90;;;;;;5073347;28;19909;-80
2022/02/16 09:49:39;;;;;;;;;;;14.00;99.90;;;;;;5073676;28;19916;-79
2022/02/16 09:52:05;;;;;;;;;;;14.20;99.90;;;;;;5073427;28;19909;-79
2022/02/16 09:54:31;;;;;;;;;;;14.10;99.90;;;;;;5073210;28;19913;-80
2022/02/16 09:56:56;;;;;;;;;;;14.20;99.90;;;;;;5073323;28;20028;-79
2022/02/16 09:59:22;;;;;;;;;;;14.20;99.90;;;;;;5073236;28;19967;-79
2022/02/16 10:01:59;;;;;;;;;;;14.30;99.90;;;;;;5055217;28;20387;-80
2022/02/16 10:04:25;;;;;;;;;;;14.20;99.90;;;;;;5055211;28;19908;-80
2022/02/16 10:06:51;;;;;;;;;;;14.40;99.90;;;;;;5073032;28;19997;-79
2022/02/16 10:09:25;;;;;;;;;;;14.60;99.90;;;;;;5073097;28;19916;-79
2022/02/16 10:11:52;;;;;;;;;;;14.80;99.90;;;;;;5055115;28;19999;-79
2022/02/16 10:14:19;;;;;;;;;;;14.90;99.90;;;;;;5073068;28;19909;-79
2022/02/16 10:16:46;;;;;;;;;;;14.90;99.90;;;;;;5072871;28;19921;-80
2022/02/16 10:19:12;;;;;;;;;;;14.80;99.90;;;;;;5073168;28;19969;-79
2022/02/16 10:21:38;;;;;;;;;;;14.70;99.90;;;;;;5073078;28;19940;-79
2022/02/16 10:24:04;;;;;;;;;;;14.90;99.90;;;;;;5075137;28;20283;-79
2022/02/16 10:26:59;;;;;;;;;;;15.00;99.90;;;;;;5076488;28;19919;-80
2022/02/16 10:29:32;;;;;;;;;;;15.10;99.90;;;;;;5074155;28;20444;-80
2022/02/16 10:31:58;;;;;;;;;;;15.10;99.90;;;;;;5076742;28;19912;-79
2022/02/16 10:34:42;;;;;;;;;;;15.10;99.90;;;;;;5076502;28;19908;-79
2022/02/16 10:37:09;;;;;;;;;;;15.20;99.90;;;;;;5076481;28;20270;-80
2022/02/16 10:39:35;;;;;;;;;;;15.50;99.90;;;;;;5076586;28;19908;-80
2022/02/16 10:42:00;;;;;;;;;;;15.60;99.90;;;;;;5076530;28;20436;-80
2022/02/16 10:44:27;;;;;;;;;;;15.40;99.90;;;;;;5076336;28;19956;-80
2022/02/16 10:46:59;;;;;;;;;;;15.60;99.90;;;;;;5076217;28;20003;-80
2022/02/16 10:49:27;;;;;;;;;;;15.80;99.90;;;;;;5076226;28;19908;-79
2022/02/16 10:52:07;;;;;;;;;;;15.80;99.90;;;;;;5058179;28;19915;-80
2022/02/16 10:54:33;;;;;;;;;;;15.90;99.90;;;;;;5058081;28;20392;-80
2022/02/16 10:56:59;;;;;;;;;;;15.60;99.90;;;;;;5058119;28;19909;-79
2022/02/16 10:59:25;;;;;;;;;;;15.70;99.90;;;;;;5076065;28;19912;-79
2022/02/16 11:01:51;;;;;;;;;;;15.70;99.90;;;;;;5076407;28;19915;-80
2022/02/16 11:04:17;;;;;;;;;;;15.60;99.90;;;;;;5075974;28;19912;-79
2022/02/16 11:06:47;;;;;;;;;;;15.50;99.90;;;;;;5075877;28;20383;-80
2022/02/16 11:09:18;;;;;;;;;;;15.30;99.90;;;;;;5075865;28;19909;-79
2022/02/16 11:11:48;;;;;;;;;;;15.40;99.90;;;;;;5075817;28;19978;-80
2022/02/16 11:14:14;;;;;;;;;;;15.30;99.90;;;;;;5075785;28;20331;-80
2022/02/16 11:16:41;;;;;;;;;;;15.30;99.90;;;;;;5075665;28;19920;-80
2022/02/16 11:19:19;;;;;;;;;;;15.30;99.90;;;;;;5057618;28;19947;-79
2022/02/16 11:22:01;;;;;;;;;;;15.30;99.90;;;;;;5075648;28;19908;-79
2022/02/16 11:24:31;;;;;;;;;;;15.40;99.90;;;;;;5057563;28;19912;-80
2022/02/16 11:26:57;;;;;;;;;;;15.40;99.90;;;;;;5075431;28;19917;-80
2022/02/16 11:29:25;;;;;;;;;;;15.40;99.90;;;;;;5075500;28;19908;-80
2022/02/16 11:31:52;;;;;;;;;;;15.40;99.90;;;;;;5057412;28;20289;-79
2022/02/16 11:34:19;;;;;;;;;;;15.20;99.90;;;;;;5075058;28;19912;-79
2022/02/16 11:36:53;;;;;;;;;;;15.20;99.90;;;;;;5075420;28;20357;-79
2022/02/16 11:39:38;;;;;;;;;;;15.50;99.90;;;;;;5075318;28;19912;-79
2022/02/16 11:42:04;;;;;;;;;;;15.50;99.90;;;;;;5075211;28;19912;-80
2022/02/16 11:44:48;;;;;;;;;;;15.50;99.90;;;;;;5075330;28;19995;-79
2022/02/16 11:47:32;;;;;;;;;;;15.60;99.90;;;;;;5057108;28;19912;-80
2022/02/16 11:49:58;;;;;;;;;;;15.80;99.90;;;;;;5075410;28;19908;-80
2022/02/16 11:52:34;;;;;;;;;;;16.10;99.90;;;;;;5075296;28;19995;-79
2022/02/16 11:55:00;;;;;;;;;;;16.00;99.90;;;;;;5057391;28;20039;-80
2022/02/16 11:57:43;;;;;;;;;;;15.90;99.90;;;;;;5074992;28;20380;-80
2022/02/16 12:00:15;;;;;;;;;;;15.80;99.90;;;;;;5074845;28;19912;-79
2022/02/16 12:02:59;;;;;;;;;;;15.70;99.90;;;;;;5075010;28;19959;-79
2022/02/16 12:05:55;;;;;;;;;;;15.60;99.90;;;;;;5056727;28;20330;-80
2022/02/16 12:08:22;;;;;;;;;;;15.70;99.90;;;;;;5075049;28;19909;-80
2022/02/16 12:10:55;;;;;;;;;;;15.70;99.90;;;;;;5074695;28;19912;-79
2022/02/16 12:13:35;;;;;;;;;;;15.80;99.90;;;;;;5074648;28;19909;-80
2022/02/16 12:16:05;;;;;;;;;;;15.80;99.90;;;;;;5056427;28;20015;-79
2022/02/16 12:18:31;;;;;;;;;;;15.80;99.90;;;;;;5074841;28;19908;-80
2022/02/16 12:20:57;;;;;;;;;;;16.30;99.90;;;;;;5074606;28;19965;-80
2022/02/16 12:23:23;;;;;;;;;;;17.20;99.90;;;;;;5074433;28;19909;-80
2022/02/16 12:26:06;;;;;;;;;;;17.10;99.90;;;;;;5074376;28;19916;-80
2022/02/16 12:28:47;;;;;;;;;;;17.20;99.90;;;;;;5074660;28;19946;-79
2022/02/16 12:31:13;;;;;;;;;;;17.10;99.90;;;;;;5074307;28;19908;-79
2022/02/16 12:33:39;;;;;;;;;;;16.80;99.90;;;;;;5074239;28;19999;-79
2022/02/16 12:36:07;;;;;;;;;;;16.40;99.90;;;;;;5074394;28;19943;-80
2022/02/16 12:38:33;;;;;;;;;;;16.20;99.90;;;;;;5074480;28;20388;-79
2022/02/16 12:41:06;;;;;;;;;;;15.90;99.90;;;;;;5074113;28;19940;-80
2022/02/16 12:43:32;;;;;;;;;;;16.10;99.90;;;;;;5074062;28;19908;-79
2022/02/16 12:45:58;;;;;;;;;;;16.00;99.90;;;;;;5055383;28;19913;-79
2022/02/16 12:48:23;;;;;;;;;;;15.90;99.90;;;;;;5056075;28;19958;-79
2022/02/16 12:50:49;;;;;;;;;;;16.00;99.90;;;;;;5073964;28;20007;-79
2022/02/16 12:53:16;;;;;;;;;;;15.90;99.90;;;;;;5073901;28;20293;-79
2022/02/16 12:55:43;;;;;;;;;;;15.80;99.90;;;;;;5073839;28;19909;-79
2022/02/16 12:58:08;;;;;;;;;;;15.80;99.90;;;;;;5074001;28;19908;-79
2022/02/16 13:00:46;;;;;;;;;;;15.80;99.90;;;;;;5073844;28;19991;-79
2022/02/16 13:03:12;;;;;;;;;;;15.60;99.90;;;;;;5055558;28;20373;-79
2022/02/16 13:05:39;;;;;;;;;;;15.30;99.90;;;;;;5055648;28;19924;-79
2022/02/16 13:08:05;;;;;;;;;;;15.10;99.90;;;;;;5074051;28;19908;-79
2022/02/16 13:10:33;;;;;;;;;;;15.00;99.90;;;;;;5073730;28;20276;-79
2022/02/16 13:13:12;;;;;;;;;;;15.00;99.90;;;;;;5055687;28;19909;-79
2022/02/16 13:15:39;;;;;;;;;;;15.00;99.90;;;;;;5074044;28;20249;-80
2022/02/16 13:18:04;;;;;;;;;;;15.10;99.90;;;;;;5073453;28;19920;-79
2022/02/16 13:20:33;;;;;;;;;;;15.10;99.90;;;;;;5055229;28;21307;-79
2022/02/16 13:22:59;;;;;;;;;;;15.10;99.90;;;;;;5074022;28;19922;-79
2022/02/16 13:25:28;;;;;;;;;;;15.10;99.90;;;;;;5073786;28;19935;-79
2022/02/16 13:27:53;;;;;;;;;;;15.00;99.90;;;;;;5073547;28;19908;-79
2022/02/16 13:30:21;;;;;;;;;;;15.00;99.90;;;;;;5073522;28;20275;-79
2022/02/16 13:32:48;;;;;;;;;;;15.00;99.90;;;;;;5073493;28;19944;-79
2022/02/16 13:35:24;;;;;;;;;;;14.90;99.90;;;;;;5073470;28;19909;-80
2022/02/16 13:38:01;;;;;;;;;;;14.90;99.90;;;;;;5073398;28;19909;-79
2022/02/16 13:40:28;;;;;;;;;;;15.00;99.90;;;;;;5073447;28;20404;-79
2022/02/16 13:43:00;;;;;;;;;;;15.10;99.90;;;;;;5073416;28;20312;-79
2022/02/16 13:45:30;;;;;;;;;;;15.00;99.90;;;;;;5073682;28;19926;-79
2022/02/16 13:47:56;;;;;;;;;;;14.90;99.90;;;;;;5055306;28;20409;-79
2022/02/16 13:50:48;;;;;;;;;;;14.90;99.90;;;;;;5073391;28;19909;-79
2022/02/16 13:53:13;;;;;;;;;;;15.00;99.90;;;;;;5069138;28;19909;-79
2022/02/16 13:55:49;;;;;;;;;;;14.90;99.90;;;;;;5073254;28;19913;-79
2022/02/16 13:58:16;;;;;;;;;;;14.80;99.90;;;;;;5075612;28;19909;-79
2022/02/16 14:00:42;;;;;;;;;;;14.80;99.90;;;;;;5077141;28;19909;-79
2022/02/16 14:03:11;;;;;;;;;;;14.80;99.90;;;;;;5077194;28;19912;-79
2022/02/16 14:05:37;;;;;;;;;;;14.70;99.90;;;;;;5077075;28;20320;-79
2022/02/16 14:08:04;;;;;;;;;;;14.80;99.90;;;;;;5077030;28;19908;-79
2022/02/16 14:10:31;;;;;;;;;;;14.90;99.90;;;;;;5076974;28;19909;-79
2022/02/16 14:12:56;;;;;;;;;;;15.30;99.90;;;;;;5077077;28;20005;-79
2022/02/16 14:15:22;;;;;;;;;;;15.50;99.90;;;;;;5076898;28;19909;-79